SAZM/MDD METAR and TAF weather

Enter ICAO airport designator
Station Type Date Time Source
SAZM METAR 2021/04/17 01:42 UTC NOAA

SAZM 170142Z 00000KT 0200 R13/0275 FG NSC 12/12 Q1015


Station Type Date Time Source
SAZM Decoded METAR 2021/04/17 01:42 UTC NOAA

Mar Del Plata Aerodrome, Argentina (SAZM) 37-56S 057-35W 21M
Apr 16, 2021 - 09:42 PM EDT / 2021.04.17 0142 UTC
Wind: Calm:0
Visibility: less than 1 mile:0
Weather: fog
Temperature: 53 F (12 C)
Dew Point: 53 F (12 C)
Relative Humidity: 100%
Pressure (altimeter): 29.97 in. Hg (1015 hPa)
ob: SAZM 170142Z 00000KT 0200 R13/0275 FG NSC 12/12 Q1015
cycle: 1

Station Type Date Time Source
SAZM TAF 2021/04/17 00:00 UTC NOAA

TAF SAZM 162300Z 1700/1724 15005KT 8000 NSC TX19/1718Z TN14/1710Z
TEMPO 1700/1703 VRB03KT 3500 BR BKN005
BECMG 1703/1705 0200 FG OVC003
BECMG 1711/1713 9999 NSW SCT015
BECMG 1715/1718 05015KT SCT035

Example: see airport list